RJFA(METAR)
02/20 20:00
METAR RJFA 201100Z 34009KT 9999 FEW020 BKN040 09/01 Q1022 RMK 1CU020
7SC040 A3021=
戻る
トップページへ戻る
IMOC Co,.Ltd.